createdAt,value
2017-02-27T00:01:11.633Z,39.5
2017-02-27T00:03:44.136Z,39.4
2017-02-27T00:06:16.617Z,39.4
2017-02-27T00:08:49.515Z,39.4
2017-02-27T00:11:21.997Z,39.4
2017-02-27T00:13:54.514Z,39.5
2017-02-27T00:16:27.019Z,39.4
2017-02-27T00:18:59.924Z,39.4
2017-02-27T00:21:32.413Z,39.4
2017-02-27T00:24:04.906Z,39.4
2017-02-27T00:26:37.828Z,39.4
2017-02-27T00:29:10.302Z,39.4
2017-02-27T00:31:42.986Z,39.4
2017-02-27T00:34:15.459Z,39.3
2017-02-27T00:36:47.959Z,39.5
2017-02-27T00:39:20.441Z,39.5
2017-02-27T00:41:52.916Z,39.4
2017-02-27T00:44:25.396Z,39.4
2017-02-27T00:46:57.888Z,39.4
2017-02-27T00:49:30.808Z,39.4
2017-02-27T00:52:03.300Z,39.4
2017-02-27T00:54:36.614Z,39.3
2017-02-27T00:57:09.117Z,39.4
2017-02-27T00:59:42.028Z,39.4
2017-02-27T01:02:14.538Z,39.4
2017-02-27T01:04:47.037Z,39.3
2017-02-27T01:07:19.535Z,39.3
2017-02-27T01:09:52.460Z,39.4
2017-02-27T01:12:24.951Z,39.4
2017-02-27T01:14:57.422Z,39.2
2017-02-27T01:17:30.335Z,39.4
2017-02-27T01:20:02.824Z,39.3
2017-02-27T01:22:35.748Z,39.3
2017-02-27T01:25:08.677Z,39.4
2017-02-27T01:27:41.161Z,39.3
2017-02-27T01:30:13.635Z,39.3
2017-02-27T01:32:46.115Z,39.3
2017-02-27T01:38:16.471Z,39.4
2017-02-27T01:47:07.296Z,39.4
2017-02-27T01:52:41.875Z,39.3
2017-02-27T01:55:14.425Z,39.3
2017-02-27T01:57:47.367Z,39.3
2017-02-27T02:00:20.324Z,39.3
2017-02-27T02:02:52.818Z,39.2
2017-02-27T02:05:25.295Z,39.2
2017-02-27T02:07:57.781Z,39.3
2017-02-27T02:10:30.476Z,39.3
2017-02-27T02:13:02.987Z,39.3
2017-02-27T02:15:35.475Z,39.3
2017-02-27T02:18:08.395Z,39.3
2017-02-27T02:20:41.322Z,39.2
2017-02-27T02:23:13.832Z,39.3
2017-02-27T02:25:46.318Z,39.2
2017-02-27T02:28:19.033Z,39.2
2017-02-27T02:30:52.813Z,39.3
2017-02-27T02:33:25.744Z,39.3
2017-02-27T02:35:58.253Z,39.3
2017-02-27T02:38:31.482Z,39.2
2017-02-27T02:41:03.977Z,39.2
2017-02-27T02:43:37.296Z,39.2
2017-02-27T02:46:09.793Z,39.3
2017-02-27T02:48:42.276Z,39.2
2017-02-27T02:51:14.780Z,39.2
2017-02-27T02:53:47.255Z,39.3
2017-02-27T02:56:20.169Z,39.2
2017-02-27T02:58:52.658Z,39.2
2017-02-27T03:01:25.189Z,39.2
2017-02-27T03:03:58.546Z,39.3
2017-02-27T03:06:31.049Z,39.1
2017-02-27T03:09:03.545Z,39.2
2017-02-27T03:11:36.083Z,39.2
2017-02-27T03:14:08.578Z,39.3
2017-02-27T03:16:41.050Z,39.2
2017-02-27T03:19:13.561Z,39.2
2017-02-27T03:21:46.053Z,39.2
2017-02-27T03:24:18.540Z,39.3
2017-02-27T03:26:51.038Z,39.2
2017-02-27T03:29:23.526Z,39.2
2017-02-27T03:31:56.034Z,39.2
2017-02-27T03:34:28.514Z,39.2
2017-02-27T03:37:01.005Z,39.3
2017-02-27T03:39:33.520Z,39.2
2017-02-27T03:42:06.431Z,39.3
2017-02-27T03:44:38.930Z,39.2
2017-02-27T03:47:11.406Z,39.1
2017-02-27T03:49:44.327Z,39.3
2017-02-27T03:52:16.805Z,39.2
2017-02-27T03:54:49.713Z,39.2
2017-02-27T03:57:22.641Z,39.2
2017-02-27T03:59:55.131Z,39.2
2017-02-27T04:02:27.627Z,39.2
2017-02-27T04:05:01.369Z,39.2
2017-02-27T04:07:34.282Z,39.1
2017-02-27T04:10:06.763Z,39.1
2017-02-27T04:12:39.258Z,39.2
2017-02-27T04:15:11.748Z,39.2
2017-02-27T04:17:44.243Z,39.2
2017-02-27T04:20:17.183Z,39.2
2017-02-27T04:22:49.668Z,39.2
2017-02-27T04:25:22.165Z,39.2
2017-02-27T04:27:54.649Z,39.2
2017-02-27T04:30:27.126Z,39.2
2017-02-27T04:32:59.609Z,39.1
2017-02-27T04:35:32.090Z,39.1
2017-02-27T04:38:04.595Z,39
2017-02-27T04:40:37.505Z,38.9
2017-02-27T04:43:10.003Z,38.9
2017-02-27T04:45:42.520Z,39
2017-02-27T04:48:15.832Z,38.9
2017-02-27T04:50:48.322Z,39
2017-02-27T04:53:20.824Z,39
2017-02-27T04:55:53.297Z,38.9
2017-02-27T04:58:25.789Z,38.9
2017-02-27T05:00:58.713Z,38.9
2017-02-27T05:03:31.196Z,39
2017-02-27T05:06:03.691Z,38.9
2017-02-27T05:08:36.194Z,39
2017-02-27T05:11:08.693Z,39
2017-02-27T05:13:41.186Z,38.9
2017-02-27T05:16:13.691Z,38.9
2017-02-27T05:18:46.165Z,39
2017-02-27T05:21:18.640Z,38.9
2017-02-27T05:23:51.572Z,38.9
2017-02-27T05:26:24.065Z,38.9
2017-02-27T05:28:56.547Z,38.9
2017-02-27T05:31:29.037Z,38.9
2017-02-27T05:34:01.521Z,39
2017-02-27T05:36:34.001Z,39
2017-02-27T05:39:06.915Z,39
2017-02-27T05:41:39.402Z,39
2017-02-27T05:44:12.300Z,39
2017-02-27T05:46:44.786Z,39
2017-02-27T05:49:17.271Z,39
2017-02-27T05:51:49.744Z,38.9
2017-02-27T05:54:22.231Z,39
2017-02-27T05:56:55.185Z,39
2017-02-27T05:59:28.095Z,39
2017-02-27T06:02:00.582Z,39
2017-02-27T06:04:33.069Z,39.1
2017-02-27T06:07:05.582Z,39.2
2017-02-27T06:09:38.053Z,39.2
2017-02-27T06:12:11.385Z,39.3
2017-02-27T06:14:43.869Z,39.2
2017-02-27T06:17:16.376Z,39.2
2017-02-27T06:19:48.888Z,39.2
2017-02-27T06:22:21.374Z,39.2
2017-02-27T06:24:54.278Z,39.2
2017-02-27T06:27:27.196Z,39.2
2017-02-27T06:29:59.717Z,39.2
2017-02-27T06:32:32.625Z,39.2
2017-02-27T06:35:05.113Z,39.2
2017-02-27T06:37:37.604Z,39.3
2017-02-27T06:40:10.541Z,39.1
2017-02-27T06:42:43.033Z,39.2
2017-02-27T06:45:15.532Z,39.2
2017-02-27T06:47:48.022Z,39.2
2017-02-27T06:50:21.085Z,39.2
2017-02-27T06:52:53.590Z,39.2
2017-02-27T06:55:26.110Z,39.1
2017-02-27T06:57:58.599Z,39.1
2017-02-27T07:00:31.188Z,39
2017-02-27T07:03:03.779Z,39.1
2017-02-27T07:05:36.301Z,39
2017-02-27T07:08:08.821Z,38.9
2017-02-27T07:10:41.949Z,39.1
2017-02-27T07:13:14.428Z,39
2017-02-27T07:15:46.948Z,38.9
2017-02-27T07:18:19.936Z,38.8
2017-02-27T07:20:52.438Z,38.9
2017-02-27T07:23:24.931Z,39.1
2017-02-27T07:25:57.439Z,39.2
2017-02-27T07:28:29.927Z,39.2
2017-02-27T07:31:02.415Z,39.3
2017-02-27T07:33:34.901Z,39.3
2017-02-27T07:36:07.558Z,39.3
2017-02-27T07:38:40.070Z,39.4
2017-02-27T07:41:12.994Z,39.5
2017-02-27T07:43:45.474Z,39.5
2017-02-27T07:46:18.035Z,39.6
2017-02-27T07:48:51.391Z,39.5
2017-02-27T07:51:24.413Z,39.4
2017-02-27T07:53:56.904Z,39.4
2017-02-27T07:56:29.733Z,39.3
2017-02-27T07:59:02.648Z,39.3
2017-02-27T08:01:35.135Z,39.3
2017-02-27T08:04:08.066Z,39.2
2017-02-27T08:06:40.566Z,39.2
2017-02-27T08:09:13.079Z,39.2
2017-02-27T08:11:45.563Z,39.2
2017-02-27T08:14:18.047Z,39.2
2017-02-27T08:16:50.530Z,39.2
2017-02-27T08:19:23.026Z,39.1
2017-02-27T08:21:55.944Z,39.1
2017-02-27T08:24:28.447Z,39.1
2017-02-27T08:27:00.966Z,39.1
2017-02-27T08:29:33.458Z,39.2
2017-02-27T08:32:05.947Z,39.2
2017-02-27T08:34:38.441Z,39.2
2017-02-27T08:37:11.128Z,39.2
2017-02-27T08:39:44.021Z,39.2
2017-02-27T08:42:16.530Z,39.2
2017-02-27T08:44:49.027Z,39.2
2017-02-27T08:47:21.939Z,39.1
2017-02-27T08:49:54.876Z,39.2
2017-02-27T08:52:27.594Z,39.2
2017-02-27T08:55:00.527Z,39.1
2017-02-27T08:57:33.039Z,39.2
2017-02-27T09:00:05.951Z,39.2
2017-02-27T09:02:38.448Z,39.2
2017-02-27T09:05:10.941Z,39.2
2017-02-27T09:07:43.429Z,39.2
2017-02-27T09:10:16.359Z,39.2
2017-02-27T09:12:49.277Z,39.2
2017-02-27T09:15:21.771Z,39.2
2017-02-27T09:17:54.882Z,39.2
2017-02-27T09:20:28.662Z,39.2
2017-02-27T09:23:01.995Z,39.2
2017-02-27T09:25:34.502Z,39.2
2017-02-27T09:28:07.451Z,39.2
2017-02-27T09:30:39.956Z,39.1
2017-02-27T09:33:12.457Z,39.2
2017-02-27T09:35:45.785Z,39.2
2017-02-27T09:38:18.284Z,39.1
2017-02-27T09:40:50.778Z,39.2
2017-02-27T09:43:23.257Z,39.3
2017-02-27T09:45:56.170Z,39.2
2017-02-27T09:48:28.641Z,39.2
2017-02-27T09:51:01.140Z,39.2
2017-02-27T09:53:33.626Z,39.1
2017-02-27T09:56:06.101Z,39.2
2017-02-27T09:58:38.595Z,39.2
2017-02-27T10:01:11.524Z,39.2
2017-02-27T10:03:44.031Z,39.2
2017-02-27T10:06:16.523Z,39.2
2017-02-27T10:08:49.457Z,39.1
2017-02-27T10:11:21.944Z,39.1
2017-02-27T10:13:54.429Z,39.1
2017-02-27T10:16:26.936Z,39.2
2017-02-27T10:18:59.418Z,39.2
2017-02-27T10:21:31.884Z,39.2
2017-02-27T10:24:04.384Z,39.2
2017-02-27T10:26:37.316Z,39.1
2017-02-27T10:29:10.243Z,39.2
2017-02-27T10:31:43.212Z,39.2
2017-02-27T10:34:15.701Z,39.2
2017-02-27T10:36:48.603Z,39.1
2017-02-27T10:39:21.092Z,39.2
2017-02-27T10:41:53.577Z,39.1
2017-02-27T10:44:26.073Z,39.1
2017-02-27T10:46:58.551Z,39.1
2017-02-27T10:49:31.071Z,39.2
2017-02-27T10:52:03.572Z,39.1
2017-02-27T10:54:36.088Z,39.2
2017-02-27T10:57:08.584Z,39.1
2017-02-27T10:59:41.091Z,39.2
2017-02-27T11:02:13.597Z,39.1
2017-02-27T11:04:46.079Z,39.2
2017-02-27T11:07:18.991Z,39.1
2017-02-27T11:09:51.497Z,39.1
2017-02-27T11:12:24.018Z,39.2
2017-02-27T11:14:56.540Z,39.1
2017-02-27T11:17:29.025Z,39
2017-02-27T11:20:01.966Z,39
2017-02-27T11:22:35.323Z,38.8
2017-02-27T11:25:08.224Z,38.7
2017-02-27T11:27:40.741Z,38.6
2017-02-27T11:30:13.256Z,38.4
2017-02-27T11:32:45.751Z,38.2
2017-02-27T11:35:18.285Z,38
2017-02-27T11:37:50.902Z,37.8
2017-02-27T11:40:23.428Z,37.5
2017-02-27T11:42:55.928Z,37.5
2017-02-27T11:45:28.451Z,37.1
2017-02-27T11:48:01.205Z,37.1
2017-02-27T11:50:34.979Z,37
2017-02-27T11:53:07.599Z,37.2
2017-02-27T11:55:40.074Z,37.2
2017-02-27T11:58:12.774Z,37.2
2017-02-27T12:00:45.260Z,37.1
2017-02-27T12:03:17.742Z,36.9
2017-02-27T12:05:50.667Z,37.3
2017-02-27T12:08:23.161Z,37.8
2017-02-27T12:10:56.100Z,38
2017-02-27T12:13:28.595Z,38.1
2017-02-27T12:16:01.521Z,38.2
2017-02-27T12:18:34.452Z,38.4
2017-02-27T12:21:06.949Z,38.5
2017-02-27T12:23:39.455Z,38.4
2017-02-27T12:26:12.142Z,38.5
2017-02-27T12:28:44.638Z,38.5
2017-02-27T12:31:17.133Z,38.5
2017-02-27T12:33:49.640Z,38.3
2017-02-27T12:36:22.385Z,38
2017-02-27T12:38:54.890Z,37.7
2017-02-27T12:41:27.390Z,37.7
2017-02-27T12:44:00.093Z,37.6
2017-02-27T12:46:32.593Z,38
2017-02-27T12:49:05.505Z,38.1
2017-02-27T12:51:37.991Z,38.2
2017-02-27T12:54:10.693Z,38.4
2017-02-27T12:56:43.211Z,38.4
2017-02-27T12:59:15.715Z,38.6
2017-02-27T13:01:48.221Z,38.6
2017-02-27T13:04:20.713Z,38.6
2017-02-27T13:06:53.802Z,38.6
2017-02-27T13:09:26.284Z,38.6
2017-02-27T13:11:58.788Z,38.6
2017-02-27T13:14:31.706Z,38.6
2017-02-27T13:17:04.233Z,38.7
2017-02-27T13:19:36.734Z,38.7
2017-02-27T13:22:09.418Z,38.6
2017-02-27T13:24:41.923Z,38.8
2017-02-27T13:27:14.689Z,38.8
2017-02-27T13:29:47.186Z,38.8
2017-02-27T13:32:19.673Z,38.8
2017-02-27T13:34:52.170Z,38.8
2017-02-27T13:37:24.671Z,38.8
2017-02-27T13:39:57.151Z,38.9
2017-02-27T13:42:29.687Z,38.8
2017-02-27T13:45:02.582Z,38.8
2017-02-27T13:47:35.504Z,38.8
2017-02-27T13:50:08.650Z,38.8
2017-02-27T13:52:41.153Z,38.9
2017-02-27T13:55:14.086Z,38.9
2017-02-27T13:57:46.570Z,38.9
2017-02-27T14:00:19.082Z,38.9
2017-02-27T14:02:51.583Z,38.9
2017-02-27T14:05:24.534Z,38.9
2017-02-27T14:07:57.051Z,38.9
2017-02-27T14:10:29.558Z,38.9
2017-02-27T14:13:02.046Z,39
2017-02-27T14:15:34.975Z,38.8
2017-02-27T14:18:08.062Z,38.9
2017-02-27T14:20:40.559Z,38.9
2017-02-27T14:23:13.045Z,38.9
2017-02-27T14:25:45.956Z,38.8
2017-02-27T14:28:18.865Z,39
2017-02-27T14:30:51.741Z,38.9
2017-02-27T14:33:24.236Z,39
2017-02-27T14:35:56.735Z,38.8
2017-02-27T14:38:29.206Z,38.8
2017-02-27T14:41:02.562Z,38.9
2017-02-27T14:43:35.543Z,38.8
2017-02-27T14:46:08.061Z,38.8
2017-02-27T14:48:40.546Z,38.8
2017-02-27T14:51:13.861Z,38.8
2017-02-27T14:53:46.553Z,38.9
2017-02-27T14:56:19.080Z,38.9
2017-02-27T14:58:51.560Z,39
2017-02-27T15:01:24.059Z,38.6
2017-02-27T15:03:56.537Z,38.5
2017-02-27T15:06:29.464Z,38.3
2017-02-27T15:09:01.965Z,38.8
2017-02-27T15:11:34.454Z,38.9
2017-02-27T15:14:06.950Z,37.8
2017-02-27T15:16:39.875Z,37.2
2017-02-27T15:19:12.369Z,36.9
2017-02-27T15:21:45.286Z,37.6
2017-02-27T15:24:17.802Z,38
2017-02-27T15:26:50.704Z,38.1
2017-02-27T15:29:23.202Z,37
2017-02-27T15:31:56.140Z,37.6
2017-02-27T15:34:28.665Z,38.2
2017-02-27T15:37:01.156Z,38.2
2017-02-27T15:39:34.493Z,38.3
2017-02-27T15:42:06.988Z,38.3
2017-02-27T15:44:39.924Z,38.1
2017-02-27T15:47:12.417Z,38.2
2017-02-27T15:49:44.927Z,38.1
2017-02-27T15:52:17.404Z,38.1
2017-02-27T15:54:49.906Z,38
2017-02-27T15:57:23.188Z,38.1
2017-02-27T15:59:56.122Z,38.1
2017-02-27T16:02:28.608Z,38.4
2017-02-27T16:05:01.133Z,38.4
2017-02-27T16:07:34.062Z,38.4
2017-02-27T16:10:06.539Z,38.3
2017-02-27T16:12:39.464Z,38.3
2017-02-27T16:15:12.194Z,38.3
2017-02-27T16:17:44.697Z,38.5
2017-02-27T16:20:17.679Z,38.6
2017-02-27T16:22:50.229Z,38.7
2017-02-27T16:25:22.722Z,38.8
2017-02-27T16:27:55.262Z,38.8
2017-02-27T16:30:27.762Z,38.8
2017-02-27T16:33:00.234Z,38.8
2017-02-27T16:35:32.747Z,38.8
2017-02-27T16:38:05.241Z,38.8
2017-02-27T16:40:37.745Z,38.9
2017-02-27T16:43:10.448Z,38.8
2017-02-27T16:45:42.945Z,38.9
2017-02-27T16:48:15.448Z,39
2017-02-27T16:50:47.960Z,38.9
2017-02-27T16:53:20.902Z,39
2017-02-27T16:55:53.408Z,39.1
2017-02-27T16:58:25.890Z,39.1
2017-02-27T17:00:58.394Z,39.2
2017-02-27T17:03:30.871Z,39.2
2017-02-27T17:06:03.370Z,37.6
2017-02-27T17:08:35.839Z,36.7
2017-02-27T17:11:08.326Z,37.2
2017-02-27T17:13:40.828Z,38.2
2017-02-27T17:16:13.326Z,38.5
2017-02-27T17:18:46.222Z,38.7
2017-02-27T17:21:19.147Z,38.8
2017-02-27T17:23:51.642Z,38.8
2017-02-27T17:26:24.121Z,38.8
2017-02-27T17:28:56.616Z,38.8
2017-02-27T17:31:29.514Z,38.9
2017-02-27T17:34:02.842Z,38.8
2017-02-27T17:36:35.349Z,38.9
2017-02-27T17:39:08.471Z,38.8
2017-02-27T17:41:40.946Z,38.8
2017-02-27T17:44:13.444Z,38.8
2017-02-27T17:46:45.931Z,38.8
2017-02-27T17:49:18.436Z,38.8
2017-02-27T17:51:51.520Z,38.7
2017-02-27T17:54:24.020Z,38.7
2017-02-27T17:56:56.511Z,38.7
2017-02-27T17:59:29.030Z,38.8
2017-02-27T18:02:01.523Z,38.7
2017-02-27T18:04:34.035Z,38.7
2017-02-27T18:07:06.538Z,38.7
2017-02-27T18:09:39.047Z,38.8
2017-02-27T18:12:11.535Z,38.7
2017-02-27T18:14:44.027Z,38.8
2017-02-27T18:17:16.526Z,38.8
2017-02-27T18:19:49.431Z,38.8
2017-02-27T18:22:21.928Z,38.8
2017-02-27T18:24:54.413Z,38.8
2017-02-27T18:27:26.896Z,38.8
2017-02-27T18:29:59.876Z,38.8
2017-02-27T18:32:32.376Z,38.8
2017-02-27T18:35:04.857Z,38.9
2017-02-27T18:37:37.335Z,39
2017-02-27T18:40:09.831Z,38.9
2017-02-27T18:42:42.929Z,38.9
2017-02-27T18:45:15.464Z,38.9
2017-02-27T18:47:47.968Z,38.8
2017-02-27T18:50:20.881Z,38.9
2017-02-27T18:52:53.381Z,38.9
2017-02-27T18:55:25.881Z,38.9
2017-02-27T18:57:58.383Z,38.9
2017-02-27T19:00:31.730Z,38.9
2017-02-27T19:03:04.222Z,38.8
2017-02-27T19:05:36.920Z,39
2017-02-27T19:08:09.422Z,38.8
2017-02-27T19:10:42.354Z,38.8
2017-02-27T19:13:14.822Z,39.1
2017-02-27T19:15:47.322Z,39
2017-02-27T19:18:19.808Z,38.9
2017-02-27T19:20:53.172Z,38.7
2017-02-27T19:23:26.184Z,38.7
2017-02-27T19:25:58.702Z,38.8
2017-02-27T19:28:31.203Z,38.7
2017-02-27T19:31:04.138Z,38.8
2017-02-27T19:33:36.772Z,38.7
2017-02-27T19:36:09.278Z,38.8
2017-02-27T19:38:42.206Z,38.9
2017-02-27T19:41:14.765Z,38.9
2017-02-27T19:43:47.270Z,38.8
2017-02-27T19:46:19.771Z,38.8
2017-02-27T19:48:52.268Z,39
2017-02-27T19:51:25.185Z,39
2017-02-27T19:53:58.659Z,38.9
2017-02-27T19:56:31.766Z,39
2017-02-27T19:59:04.370Z,39
2017-02-27T20:01:37.307Z,39.1
2017-02-27T20:04:09.815Z,39.1
2017-02-27T20:06:42.479Z,39.1
2017-02-27T20:09:14.959Z,39
2017-02-27T20:11:48.477Z,39
2017-02-27T20:14:21.392Z,39.1
2017-02-27T20:16:54.021Z,39
2017-02-27T20:19:26.501Z,39
2017-02-27T20:21:59.828Z,39
2017-02-27T20:24:32.330Z,39
2017-02-27T20:27:04.801Z,39
2017-02-27T20:29:37.327Z,39
2017-02-27T20:32:09.799Z,39
2017-02-27T20:34:42.310Z,39
2017-02-27T20:37:14.797Z,39
2017-02-27T20:39:47.531Z,39
2017-02-27T20:42:20.028Z,39
2017-02-27T20:44:52.521Z,39
2017-02-27T20:47:25.311Z,39
2017-02-27T20:49:57.810Z,39
2017-02-27T20:52:30.325Z,39
2017-02-27T20:55:02.820Z,39
2017-02-27T20:57:35.749Z,38.9
2017-02-27T21:00:08.231Z,38.9
2017-02-27T21:02:40.743Z,38.9
2017-02-27T21:05:13.482Z,38.9
2017-02-27T21:07:46.397Z,38.9
2017-02-27T21:10:18.887Z,38.8
2017-02-27T21:12:51.370Z,38.9
2017-02-27T21:15:23.865Z,38.8
2017-02-27T21:17:56.817Z,39
2017-02-27T21:20:29.593Z,38.8
2017-02-27T21:23:02.685Z,38.8
2017-02-27T21:25:35.205Z,38.8
2017-02-27T21:28:07.673Z,38.9
2017-02-27T21:30:40.153Z,38.9
2017-02-27T21:33:12.645Z,38.8
2017-02-27T21:35:45.153Z,38.9
2017-02-27T21:38:18.093Z,38.9
2017-02-27T21:40:51.053Z,38.8
2017-02-27T21:43:23.554Z,38.9
2017-02-27T21:45:56.331Z,38.8
2017-02-27T21:48:28.910Z,38.8
2017-02-27T21:51:01.413Z,38.8
2017-02-27T21:53:33.918Z,38.8
2017-02-27T21:56:06.406Z,38.8
2017-02-27T21:58:39.314Z,38.8
2017-02-27T22:01:12.644Z,38.8
2017-02-27T22:03:45.131Z,38.8
2017-02-27T22:06:18.060Z,38.8
2017-02-27T22:08:50.976Z,38.8
2017-02-27T22:11:23.889Z,38.8
2017-02-27T22:13:56.377Z,38.8
2017-02-27T22:16:29.307Z,38.8
2017-02-27T22:19:01.796Z,38.8
2017-02-27T22:21:34.291Z,38.8
2017-02-27T22:24:06.764Z,38.8
2017-02-27T22:26:39.678Z,38.8
2017-02-27T22:29:12.188Z,38.8
2017-02-27T22:31:44.697Z,38.8
2017-02-27T22:34:17.187Z,38.8
2017-02-27T22:36:49.714Z,38.7
2017-02-27T22:39:22.621Z,38.8
2017-02-27T22:41:55.122Z,38.8
2017-02-27T22:44:28.039Z,38.8
2017-02-27T22:47:00.519Z,38.8
2017-02-27T22:49:33.001Z,38.8
2017-02-27T22:52:05.485Z,38.7
2017-02-27T22:54:37.979Z,38.8
2017-02-27T22:57:10.452Z,38.7
2017-02-27T22:59:43.359Z,38.7
2017-02-27T23:02:15.845Z,38.7
2017-02-27T23:04:48.330Z,38.7
2017-02-27T23:07:20.814Z,38.7
2017-02-27T23:09:53.716Z,38.8
2017-02-27T23:12:26.204Z,38.7
2017-02-27T23:14:58.713Z,38.7
2017-02-27T23:17:31.227Z,38.7
2017-02-27T23:20:04.173Z,38.7
2017-02-27T23:22:37.071Z,38.7
2017-02-27T23:25:09.565Z,38.7
2017-02-27T23:27:42.045Z,38.7
2017-02-27T23:30:14.550Z,38.6
2017-02-27T23:32:47.038Z,38.6
2017-02-27T23:35:19.573Z,38.6
2017-02-27T23:37:52.481Z,38.6
2017-02-27T23:40:24.985Z,38.7
2017-02-27T23:42:57.912Z,38.6
2017-02-27T23:45:30.403Z,38.6
2017-02-27T23:48:02.898Z,38.7
2017-02-27T23:50:35.371Z,38.6
2017-02-27T23:53:08.298Z,38.6
2017-02-27T23:55:40.812Z,38.6
2017-02-27T23:58:13.305Z,38.5
